createdAt,value
2019-05-16T00:02:31.357Z,10.35
2019-05-16T00:05:14.220Z,10.30
2019-05-16T00:08:04.689Z,10.28
2019-05-16T00:10:48.713Z,10.25
2019-05-16T00:13:39.139Z,10.20
2019-05-16T00:16:21.759Z,10.25
2019-05-16T00:19:12.180Z,10.20
2019-05-16T00:21:55.419Z,10.16
2019-05-16T00:24:45.779Z,10.17
2019-05-16T00:27:29.007Z,10.13
2019-05-16T00:30:19.488Z,10.10
2019-05-16T00:33:02.098Z,10.11
2019-05-16T00:36:02.446Z,10.13
2019-05-16T00:38:57.855Z,10.10
2019-05-16T00:41:48.326Z,10.10
2019-05-16T00:44:30.952Z,10.09
2019-05-16T00:47:21.419Z,10.10
2019-05-16T00:50:04.549Z,10.11
2019-05-16T00:52:54.939Z,10.10
2019-05-16T00:55:38.928Z,10.11
2019-05-16T00:58:22.472Z,10.10
2019-05-16T01:01:12.917Z,10.11
2019-05-16T01:04:03.283Z,10.11
2019-05-16T01:06:48.372Z,10.15
2019-05-16T01:09:38.755Z,10.15
2019-05-16T01:12:21.709Z,10.10
2019-05-16T01:15:12.178Z,10.09
2019-05-16T01:17:55.512Z,10.16
2019-05-16T01:20:47.888Z,10.13
2019-05-16T01:23:50.179Z,10.09
2019-05-16T01:26:40.561Z,10.11
2019-05-16T01:29:23.271Z,10.17
2019-05-16T01:32:13.651Z,10.19
2019-05-16T01:34:58.766Z,10.17
2019-05-16T01:37:48.921Z,10.21
2019-05-16T01:40:53.519Z,10.18
2019-05-16T01:43:43.882Z,10.18
2019-05-16T01:46:28.500Z,10.21
2019-05-16T01:49:18.912Z,10.15
2019-05-16T01:52:02.263Z,10.15
2019-05-16T01:54:52.656Z,10.11
2019-05-16T01:57:35.990Z,10.12
2019-05-16T02:00:25.137Z,10.09
2019-05-16T02:03:11.218Z,10.12
2019-05-16T02:05:54.538Z,10.07
2019-05-16T02:08:44.907Z,10.07
2019-05-16T02:11:28.497Z,10.07
2019-05-16T02:14:18.995Z,10.08
2019-05-16T02:17:01.740Z,10.14
2019-05-16T02:19:52.094Z,10.16
2019-05-16T02:22:35.088Z,10.17
2019-05-16T02:25:27.591Z,10.12
2019-05-16T02:28:39.242Z,10.07
2019-05-16T02:31:22.958Z,10.04
2019-05-16T02:34:26.565Z,10.03
2019-05-16T02:37:25.885Z,10.12
2019-05-16T02:40:23.598Z,10.09
2019-05-16T02:43:13.967Z,10.09
2019-05-16T02:45:56.932Z,10.10
2019-05-16T02:49:00.810Z,10.10
2019-05-16T02:51:51.144Z,10.09
2019-05-16T02:54:54.627Z,10.08
2019-05-16T02:57:44.980Z,10.10
2019-05-16T03:03:40.363Z,10.12
2019-05-16T03:06:43.047Z,10.12
2019-05-16T03:09:53.871Z,10.15
2019-05-16T03:12:44.308Z,10.13
2019-05-16T03:15:34.676Z,10.07
2019-05-16T03:18:21.316Z,10.04
2019-05-16T03:21:30.915Z,10.07
2019-05-16T03:24:34.879Z,10.07
2019-05-16T03:27:25.263Z,10.05
2019-05-16T03:30:14.366Z,10.06
2019-05-16T03:33:05.131Z,10.04
2019-05-16T03:36:05.722Z,10.04
2019-05-16T03:38:56.095Z,10.07
2019-05-16T03:41:41.459Z,10.08
2019-05-16T03:44:23.880Z,10.10
2019-05-16T03:47:14.245Z,10.10
2019-05-16T03:50:17.360Z,10.11
2019-05-16T03:53:07.731Z,10.06
2019-05-16T03:55:51.627Z,10.07
2019-05-16T03:58:34.788Z,10.12
2019-05-16T04:01:25.176Z,10.23
2019-05-16T04:04:11.373Z,10.11
2019-05-16T04:07:01.355Z,10.15
2019-05-16T04:10:05.081Z,10.08
2019-05-16T04:12:55.439Z,10.14
2019-05-16T04:16:01.234Z,10.10
2019-05-16T04:18:51.391Z,10.14
2019-05-16T04:21:55.208Z,10.18
2019-05-16T04:24:45.585Z,10.16
2019-05-16T04:27:30.941Z,10.20
2019-05-16T04:30:22.037Z,10.20
2019-05-16T04:33:25.495Z,10.16
2019-05-16T04:36:15.841Z,10.11
2019-05-16T04:39:01.814Z,10.13
2019-05-16T04:41:51.444Z,10.16
2019-05-16T04:44:34.373Z,10.14
2019-05-16T04:47:24.734Z,10.15
2019-05-16T04:50:11.241Z,10.20
2019-05-16T04:53:01.415Z,10.17
2019-05-16T04:56:04.811Z,10.20
2019-05-16T04:58:55.191Z,10.26
2019-05-16T05:01:41.073Z,10.28
2019-05-16T05:04:30.805Z,10.30
2019-05-16T05:07:34.422Z,10.34
2019-05-16T05:10:24.799Z,10.38
2019-05-16T05:13:10.789Z,10.35
2019-05-16T05:16:01.314Z,10.48
2019-05-16T05:19:04.849Z,10.42
2019-05-16T05:21:55.198Z,10.47
2019-05-16T05:24:40.419Z,10.45
2019-05-16T05:27:30.462Z,10.49
2019-05-16T05:30:33.681Z,10.50
2019-05-16T05:33:24.119Z,10.51
2019-05-16T05:36:06.969Z,10.50
2019-05-16T05:39:09.082Z,10.53
2019-05-16T05:42:01.523Z,10.63
2019-05-16T05:44:44.331Z,10.64
2019-05-16T05:50:44.942Z,10.47
2019-05-16T05:53:35.290Z,10.53
2019-05-16T05:56:19.733Z,10.53
2019-05-16T05:59:11.371Z,10.45
2019-05-16T06:02:14.948Z,10.49
2019-05-16T06:04:46.222Z,10.43
2019-05-16T06:07:36.627Z,10.44
2019-05-16T06:10:19.941Z,10.52
2019-05-16T06:13:11.063Z,10.78
2019-05-16T06:16:15.384Z,10.93
2019-05-16T06:19:05.749Z,11.20
2019-05-16T06:21:50.331Z,11.36
2019-05-16T06:24:40.691Z,11.46
2019-05-16T06:27:23.977Z,11.59
2019-05-16T06:30:14.363Z,11.71
2019-05-16T06:32:57.096Z,11.74
2019-05-16T06:35:47.510Z,11.71
2019-05-16T06:38:30.157Z,11.76
2019-05-16T06:41:20.565Z,11.77
2019-05-16T06:44:03.574Z,11.83
2019-05-16T06:47:09.060Z,11.91
2019-05-16T06:50:00.253Z,12.03
2019-05-16T06:52:51.089Z,12.14
2019-05-16T06:55:34.569Z,12.27
2019-05-16T06:58:24.999Z,12.34
2019-05-16T07:01:09.694Z,12.45
2019-05-16T07:04:00.201Z,12.56
2019-05-16T07:07:04.188Z,12.66
2019-05-16T07:10:01.711Z,12.69
2019-05-16T07:13:00.786Z,12.84
2019-05-16T07:15:51.218Z,13.08
2019-05-16T07:18:35.347Z,13.22
2019-05-16T07:21:20.192Z,13.40
2019-05-16T07:24:10.933Z,13.52
2019-05-16T07:27:14.581Z,13.70
2019-05-16T07:30:05.325Z,13.78
2019-05-16T07:32:50.046Z,13.89
2019-05-16T07:35:40.235Z,14.03
2019-05-16T07:38:23.313Z,14.19
2019-05-16T07:41:14.125Z,14.32
2019-05-16T07:44:20.398Z,14.33
2019-05-16T07:47:11.287Z,14.45
2019-05-16T07:50:15.101Z,14.47
2019-05-16T07:53:05.513Z,14.47
2019-05-16T07:55:50.589Z,14.45
2019-05-16T07:58:33.017Z,14.42
2019-05-16T08:01:23.421Z,14.41
2019-05-16T08:04:06.605Z,14.48
2019-05-16T08:06:56.999Z,14.59
2019-05-16T08:09:40.043Z,14.82
2019-05-16T08:12:32.994Z,14.98
2019-05-16T08:15:35.324Z,15.12
2019-05-16T08:18:25.693Z,15.19
2019-05-16T08:21:10.950Z,15.13
2019-05-16T08:24:07.471Z,15.00
2019-05-16T08:27:06.352Z,14.78
2019-05-16T08:29:56.776Z,14.75
2019-05-16T08:32:42.098Z,14.78
2019-05-16T08:35:31.774Z,14.87
2019-05-16T08:38:15.231Z,14.84
2019-05-16T08:44:35.092Z,14.57
2019-05-16T08:47:25.610Z,14.29
2019-05-16T08:50:13.922Z,14.03
2019-05-16T08:52:54.205Z,13.94
2019-05-16T08:56:03.451Z,13.96
2019-05-16T08:58:46.470Z,13.96
2019-05-16T09:01:36.824Z,14.00
2019-05-16T09:04:43.920Z,14.02
2019-05-16T09:07:32.397Z,13.97
2019-05-16T09:10:45.899Z,13.94
2019-05-16T09:13:07.443Z,13.94
2019-05-16T09:15:50.799Z,13.99
2019-05-16T09:18:45.554Z,13.98
2019-05-16T09:21:47.478Z,13.90
2019-05-16T09:24:38.068Z,14.13
2019-05-16T09:27:21.541Z,14.31
2019-05-16T09:30:12.095Z,14.63
2019-05-16T09:32:55.350Z,14.86
2019-05-16T09:35:47.687Z,15.06
2019-05-16T09:38:49.997Z,15.40
2019-05-16T09:41:54.539Z,15.68
2019-05-16T09:44:47.570Z,15.83
2019-05-16T09:47:39.140Z,16.26
2019-05-16T09:50:43.143Z,16.81
2019-05-16T09:53:33.540Z,17.25
2019-05-16T09:56:16.827Z,17.75
2019-05-16T09:59:07.370Z,17.76
2019-05-16T10:01:50.767Z,17.70
2019-05-16T10:04:41.133Z,17.45
2019-05-16T10:07:23.709Z,17.66
2019-05-16T10:10:14.172Z,17.81
2019-05-16T10:12:57.176Z,18.22
2019-05-16T10:15:47.585Z,18.36
2019-05-16T10:18:30.279Z,18.70
2019-05-16T10:21:20.816Z,19.26
2019-05-16T10:24:03.495Z,19.37
2019-05-16T10:26:54.316Z,18.80
2019-05-16T10:30:01.172Z,18.33
2019-05-16T10:32:50.282Z,18.22
2019-05-16T10:35:32.903Z,18.58
2019-05-16T10:38:23.318Z,18.87
2019-05-16T10:41:07.328Z,18.78
2019-05-16T10:43:57.843Z,18.66
2019-05-16T10:46:40.549Z,18.60
2019-05-16T10:49:37.291Z,19.05
2019-05-16T10:52:37.314Z,19.19
2019-05-16T10:55:20.132Z,19.34
2019-05-16T10:58:10.593Z,19.41
2019-05-16T11:01:22.434Z,19.48
2019-05-16T11:03:48.840Z,19.40
2019-05-16T11:06:50.084Z,19.32
2019-05-16T11:09:53.495Z,18.97
2019-05-16T11:12:51.178Z,19.02
2019-05-16T11:15:37.415Z,19.25
2019-05-16T11:18:41.857Z,19.01
2019-05-16T11:21:32.242Z,18.51
2019-05-16T11:24:15.408Z,18.40
2019-05-16T11:26:47.351Z,18.36
2019-05-16T11:29:51.683Z,18.20
2019-05-16T11:32:42.084Z,18.08
2019-05-16T11:35:27.234Z,18.04
2019-05-16T11:38:17.991Z,18.08
2019-05-16T11:41:01.831Z,17.93
2019-05-16T11:43:52.243Z,18.00
2019-05-16T11:46:37.431Z,18.16
2019-05-16T11:49:27.673Z,18.30
2019-05-16T11:52:31.651Z,18.35
2019-05-16T11:55:22.246Z,18.32
2019-05-16T11:58:06.759Z,18.50
2019-05-16T12:00:57.710Z,18.61
2019-05-16T12:04:01.933Z,18.47
2019-05-16T12:06:52.313Z,18.28
2019-05-16T12:09:46.602Z,18.14
2019-05-16T12:12:27.849Z,18.14
2019-05-16T12:15:11.058Z,18.24
2019-05-16T12:18:05.013Z,18.66
2019-05-16T12:21:07.697Z,18.87
2019-05-16T12:23:58.353Z,18.94
2019-05-16T12:26:41.670Z,19.01
2019-05-16T12:29:32.051Z,18.89
2019-05-16T12:32:03.515Z,18.76
2019-05-16T12:34:54.124Z,18.55
2019-05-16T12:37:44.557Z,18.40
2019-05-16T12:40:49.593Z,18.21
2019-05-16T12:43:48.938Z,17.92
2019-05-16T12:46:47.260Z,17.47
2019-05-16T12:49:36.988Z,17.12
2019-05-16T12:52:20.407Z,16.91
2019-05-16T12:55:10.899Z,16.62
2019-05-16T12:57:58.738Z,16.47
2019-05-16T13:00:37.326Z,16.46
2019-05-16T13:03:27.940Z,16.42
2019-05-16T13:06:10.413Z,16.36
2019-05-16T13:09:00.798Z,16.33
2019-05-16T13:11:43.756Z,16.46
2019-05-16T13:14:37.303Z,16.68
2019-05-16T13:17:38.574Z,16.73
2019-05-16T13:20:28.952Z,16.92
2019-05-16T13:23:18.088Z,16.92
2019-05-16T13:26:07.022Z,16.93
2019-05-16T13:29:09.310Z,16.94
2019-05-16T13:31:59.663Z,16.84
2019-05-16T13:34:43.143Z,16.61
2019-05-16T13:37:33.547Z,16.47
2019-05-16T13:40:17.416Z,16.42
2019-05-16T13:43:10.174Z,16.31
2019-05-16T13:46:12.403Z,16.21
2019-05-16T13:48:54.959Z,16.12
2019-05-16T13:51:45.320Z,16.20
2019-05-16T13:54:28.395Z,16.28
2019-05-16T13:57:18.760Z,16.34
2019-05-16T14:00:01.750Z,16.28
2019-05-16T14:02:52.140Z,16.22
2019-05-16T14:05:37.890Z,16.27
2019-05-16T14:08:27.644Z,16.38
2019-05-16T14:11:10.922Z,16.26
2019-05-16T14:14:04.589Z,16.22
2019-05-16T14:17:14.134Z,16.15
2019-05-16T14:19:58.194Z,16.11
2019-05-16T14:22:41.591Z,16.05
2019-05-16T14:25:31.988Z,15.95
2019-05-16T14:28:17.125Z,15.84
2019-05-16T14:31:07.524Z,15.84
2019-05-16T14:33:50.808Z,15.97
2019-05-16T14:36:41.191Z,16.04
2019-05-16T14:39:28.130Z,16.14
2019-05-16T14:42:08.858Z,16.29
2019-05-16T14:45:10.386Z,16.47
2019-05-16T14:48:06.862Z,16.60
2019-05-16T14:50:57.472Z,16.61
2019-05-16T14:54:01.107Z,16.57
2019-05-16T14:56:51.496Z,16.56
2019-05-16T14:59:56.569Z,16.37
2019-05-16T15:02:47.999Z,16.13
2019-05-16T15:05:54.808Z,16.05
2019-05-16T15:08:43.545Z,15.93
2019-05-16T15:11:28.179Z,15.94
2019-05-16T15:14:18.271Z,15.89
2019-05-16T15:17:01.778Z,15.84
2019-05-16T15:19:52.146Z,15.70
2019-05-16T15:22:38.347Z,15.68
2019-05-16T15:25:28.198Z,15.76
2019-05-16T15:28:11.145Z,15.82
2019-05-16T15:31:01.505Z,15.80
2019-05-16T15:33:44.719Z,15.80
2019-05-16T15:36:37.259Z,15.75
2019-05-16T15:39:39.871Z,15.71
2019-05-16T15:42:30.224Z,15.90
2019-05-16T15:45:17.616Z,15.99
2019-05-16T15:48:08.575Z,15.88
2019-05-16T15:51:11.451Z,15.73
2019-05-16T15:57:31.039Z,15.26
2019-05-16T16:03:47.277Z,14.90
2019-05-16T16:06:49.847Z,14.90
2019-05-16T16:09:40.333Z,14.89
2019-05-16T16:12:23.351Z,14.78
2019-05-16T16:15:13.765Z,14.72
2019-05-16T16:17:58.838Z,14.70
2019-05-16T16:20:49.224Z,14.60
2019-05-16T16:23:32.384Z,14.56
2019-05-16T16:26:22.776Z,14.52
2019-05-16T16:29:07.301Z,14.40
2019-05-16T16:31:57.821Z,14.38
2019-05-16T16:34:41.299Z,14.35
2019-05-16T16:37:31.715Z,14.38
2019-05-16T16:40:17.402Z,14.37
2019-05-16T16:43:07.935Z,14.27
2019-05-16T16:46:13.538Z,14.23
2019-05-16T16:48:57.428Z,14.13
2019-05-16T16:51:48.219Z,14.13
2019-05-16T16:54:52.010Z,14.19
2019-05-16T16:57:42.384Z,14.07
2019-05-16T17:00:28.006Z,14.03
2019-05-16T17:03:17.774Z,13.94
2019-05-16T17:06:21.259Z,13.91
2019-05-16T17:09:11.641Z,13.78
2019-05-16T17:11:57.023Z,13.86
2019-05-16T17:14:47.038Z,13.70
2019-05-16T17:17:29.997Z,13.56
2019-05-16T17:20:20.717Z,13.41
2019-05-16T17:23:03.622Z,13.30
2019-05-16T17:25:56.428Z,13.29
2019-05-16T17:28:58.388Z,13.29
2019-05-16T17:31:55.809Z,13.17
2019-05-16T17:34:55.384Z,13.12
2019-05-16T17:37:46.671Z,13.06
2019-05-16T17:40:49.953Z,13.00
2019-05-16T17:43:59.375Z,12.93
2019-05-16T17:46:42.105Z,12.85
2019-05-16T17:49:32.533Z,12.76
2019-05-16T17:52:16.553Z,12.80
2019-05-16T17:55:27.831Z,12.77
2019-05-16T17:58:10.608Z,12.65
2019-05-16T18:01:01.053Z,12.62
2019-05-16T18:03:44.440Z,12.54
2019-05-16T18:06:36.972Z,12.55
2019-05-16T18:09:43.028Z,12.45
2019-05-16T18:12:52.931Z,12.45
2019-05-16T18:15:36.734Z,12.35
2019-05-16T18:18:19.435Z,12.31
2019-05-16T18:21:09.869Z,12.35
2019-05-16T18:23:52.902Z,12.20
2019-05-16T18:26:43.377Z,12.18
2019-05-16T18:29:36.352Z,12.12
2019-05-16T18:32:38.458Z,12.18
2019-05-16T18:35:28.810Z,12.15
2019-05-16T18:38:13.125Z,11.93
2019-05-16T18:44:21.705Z,11.66
2019-05-16T18:47:34.472Z,11.60
2019-05-16T18:50:18.389Z,11.55
2019-05-16T18:53:09.405Z,11.51
2019-05-16T18:55:52.629Z,11.51
2019-05-16T18:58:43.084Z,11.50
2019-05-16T19:01:26.938Z,11.44
2019-05-16T19:04:17.798Z,11.38
2019-05-16T19:07:27.318Z,11.45
2019-05-16T19:10:31.146Z,11.31
2019-05-16T19:13:21.624Z,11.28
2019-05-16T19:16:12.112Z,11.29
2019-05-16T19:18:56.554Z,11.22
2019-05-16T19:21:47.057Z,11.09
2019-05-16T19:24:29.886Z,11.09
2019-05-16T19:30:41.188Z,11.02
2019-05-16T19:33:24.681Z,11.07
2019-05-16T19:36:16.524Z,11.08
2019-05-16T19:39:19.235Z,11.05
2019-05-16T19:42:09.700Z,11.01
2019-05-16T19:44:52.776Z,11.02
2019-05-16T19:47:43.246Z,10.98
2019-05-16T19:50:26.703Z,10.97
2019-05-16T19:53:17.285Z,10.87
2019-05-16T19:56:00.773Z,10.86
2019-05-16T19:58:51.260Z,10.86
2019-05-16T20:01:22.603Z,10.89
2019-05-16T20:04:15.468Z,10.96
2019-05-16T20:07:26.378Z,10.90
2019-05-16T20:10:29.659Z,10.88
2019-05-16T20:13:19.519Z,10.85
2019-05-16T20:16:02.024Z,10.85
2019-05-16T20:18:46.626Z,10.87
2019-05-16T20:21:40.377Z,10.99
2019-05-16T20:24:42.808Z,10.95
2019-05-16T20:27:33.285Z,10.88
2019-05-16T20:30:17.097Z,10.80
2019-05-16T20:33:09.546Z,10.81
2019-05-16T20:36:12.310Z,10.90
2019-05-16T20:39:02.800Z,10.76
2019-05-16T20:41:47.524Z,10.77
2019-05-16T20:44:38.075Z,10.68
2019-05-16T20:47:20.835Z,10.66
2019-05-16T20:50:30.545Z,10.70
2019-05-16T20:53:13.772Z,10.66
2019-05-16T20:56:06.434Z,10.68
2019-05-16T20:59:08.685Z,10.72
2019-05-16T21:02:01.245Z,10.72
2019-05-16T21:04:32.615Z,10.64
2019-05-16T21:07:23.016Z,10.75
2019-05-16T21:10:07.912Z,10.72
2019-05-16T21:12:58.098Z,10.70
2019-05-16T21:15:41.029Z,10.64
2019-05-16T21:18:31.696Z,10.61
2019-05-16T21:21:16.614Z,10.56
2019-05-16T21:24:07.090Z,10.56
2019-05-16T21:27:11.069Z,10.56
2019-05-16T21:30:01.459Z,10.52
2019-05-16T21:32:46.996Z,10.55
2019-05-16T21:35:36.795Z,10.67
2019-05-16T21:38:19.928Z,10.58
2019-05-16T21:41:10.375Z,10.50
2019-05-16T21:44:13.137Z,10.47
2019-05-16T21:47:03.567Z,10.49
2019-05-16T21:49:47.186Z,10.49
2019-05-16T21:52:37.755Z,10.45
2019-05-16T21:55:20.812Z,10.52
2019-05-16T21:58:11.208Z,10.53
2019-05-16T22:00:56.685Z,10.51
2019-05-16T22:03:47.232Z,10.45
2019-05-16T22:06:30.034Z,10.40
2019-05-16T22:09:14.315Z,10.43
2019-05-16T22:12:06.676Z,10.44
2019-05-16T22:15:09.058Z,10.48
2019-05-16T22:17:59.434Z,10.45
2019-05-16T22:20:42.543Z,10.44
2019-05-16T22:23:32.953Z,10.44
2019-05-16T22:26:17.310Z,10.46
2019-05-16T22:29:00.331Z,10.47
2019-05-16T22:31:50.743Z,10.53
2019-05-16T22:34:34.263Z,10.55
2019-05-16T22:37:17.389Z,10.43
2019-05-16T22:40:08.070Z,10.44
2019-05-16T22:42:51.313Z,10.46
2019-05-16T22:45:41.680Z,10.38
2019-05-16T22:48:26.529Z,10.31
2019-05-16T22:51:09.302Z,10.28
2019-05-16T22:53:59.659Z,10.19
2019-05-16T22:56:42.427Z,10.21
2019-05-16T22:59:32.811Z,10.17
2019-05-16T23:02:16.812Z,10.15
2019-05-16T23:05:07.553Z,10.24
2019-05-16T23:08:02.133Z,10.24
2019-05-16T23:10:42.896Z,10.22
2019-05-16T23:13:26.618Z,10.20
2019-05-16T23:16:17.301Z,10.28
2019-05-16T23:19:00.047Z,10.19
2019-05-16T23:21:50.391Z,10.15
2019-05-16T23:24:33.593Z,10.17
2019-05-16T23:27:23.969Z,10.25
2019-05-16T23:30:07.628Z,10.22
2019-05-16T23:32:58.028Z,10.15
2019-05-16T23:35:40.668Z,10.16
2019-05-16T23:38:31.021Z,10.15
2019-05-16T23:41:14.547Z,10.10
2019-05-16T23:44:07.263Z,10.11
2019-05-16T23:47:10.152Z,10.05
2019-05-16T23:50:00.501Z,10.07
2019-05-16T23:52:43.434Z,10.12
2019-05-16T23:55:33.819Z,10.13
2019-05-16T23:58:16.397Z,10.06
